sensor_id;sensor_type;location;lat;lon;timestamp;pressure;altitude;pressure_sealevel;temperature;humidity
50368;BME280;36281;34.132;-118.018;2023-04-19T00:00:07;99917.41;;;20.03;45.10
50368;BME280;36281;34.132;-118.018;2023-04-19T00:02:38;99921.19;;;19.97;44.41
50368;BME280;36281;34.132;-118.018;2023-04-19T00:05:09;99917.19;;;19.90;44.46
50368;BME280;36281;34.132;-118.018;2023-04-19T00:07:41;99913.69;;;19.84;44.72
50368;BME280;36281;34.132;-118.018;2023-04-19T00:10:10;99910.47;;;19.82;44.86
50368;BME280;36281;34.132;-118.018;2023-04-19T00:12:39;99919.63;;;19.81;45.22
50368;BME280;36281;34.132;-118.018;2023-04-19T00:15:09;99919.06;;;19.79;45.64
50368;BME280;36281;34.132;-118.018;2023-04-19T00:17:40;99912.91;;;19.73;45.48
50368;BME280;36281;34.132;-118.018;2023-04-19T00:20:10;99925.00;;;19.66;45.98
50368;BME280;36281;34.132;-118.018;2023-04-19T00:22:42;99925.81;;;19.61;46.30
50368;BME280;36281;34.132;-118.018;2023-04-19T00:25:11;99925.50;;;19.57;46.54
50368;BME280;36281;34.132;-118.018;2023-04-19T00:27:40;99934.16;;;19.59;46.80
50368;BME280;36281;34.132;-118.018;2023-04-19T00:30:09;99929.81;;;19.58;46.77
50368;BME280;36281;34.132;-118.018;2023-04-19T00:32:40;99929.84;;;19.63;46.53
50368;BME280;36281;34.132;-118.018;2023-04-19T00:35:09;99936.56;;;19.66;46.86
50368;BME280;36281;34.132;-118.018;2023-04-19T00:37:38;99932.78;;;19.62;46.66
50368;BME280;36281;34.132;-118.018;2023-04-19T00:40:08;99934.16;;;19.59;46.81
50368;BME280;36281;34.132;-118.018;2023-04-19T00:42:38;99938.41;;;19.55;46.94
50368;BME280;36281;34.132;-118.018;2023-04-19T00:45:08;99939.75;;;19.53;47.40
50368;BME280;36281;34.132;-118.018;2023-04-19T00:47:39;99941.09;;;19.50;46.87
50368;BME280;36281;34.132;-118.018;2023-04-19T00:50:09;99932.25;;;19.45;47.34
50368;BME280;36281;34.132;-118.018;2023-04-19T00:52:38;99938.41;;;19.40;47.46
50368;BME280;36281;34.132;-118.018;2023-04-19T00:55:08;99941.34;;;19.33;47.17
50368;BME280;36281;34.132;-118.018;2023-04-19T00:57:37;99936.25;;;19.27;47.42
50368;BME280;36281;34.132;-118.018;2023-04-19T01:00:07;99935.44;;;19.21;47.58
50368;BME280;36281;34.132;-118.018;2023-04-19T01:02:39;99948.06;;;19.16;47.52
50368;BME280;36281;34.132;-118.018;2023-04-19T01:05:08;99944.81;;;19.08;47.88
50368;BME280;36281;34.132;-118.018;2023-04-19T01:07:37;99945.59;;;19.04;48.21
50368;BME280;36281;34.132;-118.018;2023-04-19T01:10:07;99948.03;;;19.00;48.28
50368;BME280;36281;34.132;-118.018;2023-04-19T01:12:36;99945.34;;;18.95;48.71
50368;BME280;36281;34.132;-118.018;2023-04-19T01:15:06;99945.84;;;18.92;48.83
50368;BME280;36281;34.132;-118.018;2023-04-19T01:17:35;99945.56;;;18.89;48.58
50368;BME280;36281;34.132;-118.018;2023-04-19T01:20:08;99941.00;;;18.84;48.98
50368;BME280;36281;34.132;-118.018;2023-04-19T01:22:38;99939.94;;;18.80;49.24
50368;BME280;36281;34.132;-118.018;2023-04-19T01:25:08;99936.66;;;18.73;49.35
50368;BME280;36281;34.132;-118.018;2023-04-19T01:27:38;99940.91;;;18.64;49.12
50368;BME280;36281;34.132;-118.018;2023-04-19T01:30:08;99929.88;;;18.55;49.30
50368;BME280;36281;34.132;-118.018;2023-04-19T01:32:37;99941.09;;;18.47;49.43
50368;BME280;36281;34.132;-118.018;2023-04-19T01:35:06;99946.44;;;18.42;49.77
50368;BME280;36281;34.132;-118.018;2023-04-19T01:37:40;99943.19;;;18.40;50.31
50368;BME280;36281;34.132;-118.018;2023-04-19T01:40:10;99945.88;;;18.34;50.49
50368;BME280;36281;34.132;-118.018;2023-04-19T01:42:39;99935.13;;;18.29;50.44
50368;BME280;36281;34.132;-118.018;2023-04-19T01:45:09;99933.75;;;18.22;50.55
50368;BME280;36281;34.132;-118.018;2023-04-19T01:47:39;99934.78;;;18.16;50.51
50368;BME280;36281;34.132;-118.018;2023-04-19T01:53:10;99933.63;;;18.01;50.69
50368;BME280;36281;34.132;-118.018;2023-04-19T01:55:39;99929.06;;;17.97;51.24
50368;BME280;36281;34.132;-118.018;2023-04-19T01:58:08;99924.47;;;17.92;51.14
50368;BME280;36281;34.132;-118.018;2023-04-19T02:00:37;99934.34;;;17.87;51.34
50368;BME280;36281;34.132;-118.018;2023-04-19T02:03:06;99932.69;;;17.80;51.48
50368;BME280;36281;34.132;-118.018;2023-04-19T02:05:38;99923.81;;;17.75;51.53
50368;BME280;36281;34.132;-118.018;2023-04-19T02:08:09;99929.63;;;17.67;51.83
50368;BME280;36281;34.132;-118.018;2023-04-19T02:10:38;99894.00;;;17.34;51.70
50368;BME280;36281;34.132;-118.018;2023-04-19T02:13:07;99936.47;;;17.52;51.79
50368;BME280;36281;34.132;-118.018;2023-04-19T02:15:36;99934.28;;;17.49;51.91
50368;BME280;36281;34.132;-118.018;2023-04-19T02:18:05;99940.66;;;17.43;51.85
50368;BME280;36281;34.132;-118.018;2023-04-19T02:20:35;99939.03;;;17.37;52.26
50368;BME280;36281;34.132;-118.018;2023-04-19T02:23:04;99944.31;;;17.32;52.06
50368;BME280;36281;34.132;-118.018;2023-04-19T02:25:35;99950.72;;;17.26;52.50
50368;BME280;36281;34.132;-118.018;2023-04-19T02:28:04;99931.03;;;17.15;52.22
50368;BME280;36281;34.132;-118.018;2023-04-19T02:30:33;99950.28;;;17.12;52.36
50368;BME280;36281;34.132;-118.018;2023-04-19T02:33:04;99951.84;;;17.08;52.17
50368;BME280;36281;34.132;-118.018;2023-04-19T02:35:33;99957.41;;;17.01;52.61
50368;BME280;36281;34.132;-118.018;2023-04-19T02:38:03;99970.16;;;16.94;52.34
50368;BME280;36281;34.132;-118.018;2023-04-19T02:40:32;99968.00;;;16.91;52.73
50368;BME280;36281;34.132;-118.018;2023-04-19T02:43:03;99980.75;;;16.84;52.61
50368;BME280;36281;34.132;-118.018;2023-04-19T02:45:32;99979.03;;;16.73;52.56
50368;BME280;36281;34.132;-118.018;2023-04-19T02:48:01;99965.69;;;16.56;52.71
50368;BME280;36281;34.132;-118.018;2023-04-19T02:50:31;99976.13;;;16.58;52.71
50368;BME280;36281;34.132;-118.018;2023-04-19T02:53:00;99975.50;;;16.50;52.59
50368;BME280;36281;34.132;-118.018;2023-04-19T02:55:29;99975.19;;;16.47;52.75
50368;BME280;36281;34.132;-118.018;2023-04-19T02:57:58;99979.34;;;16.38;52.64
50368;BME280;36281;34.132;-118.018;2023-04-19T03:00:29;99991.56;;;16.34;52.67
50368;BME280;36281;34.132;-118.018;2023-04-19T03:02:58;99990.97;;;16.26;52.58
50368;BME280;36281;34.132;-118.018;2023-04-19T03:05:28;99996.47;;;16.20;52.61
50368;BME280;36281;34.132;-118.018;2023-04-19T03:07:57;99998.50;;;16.13;52.93
50368;BME280;36281;34.132;-118.018;2023-04-19T03:10:26;99994.69;;;16.09;52.82
50368;BME280;36281;34.132;-118.018;2023-04-19T03:12:55;99998.34;;;16.02;52.72
50368;BME280;36281;34.132;-118.018;2023-04-19T03:15:24;100000.69;;;15.99;53.00
50368;BME280;36281;34.132;-118.018;2023-04-19T03:17:55;99995.75;;;15.91;53.24
50368;BME280;36281;34.132;-118.018;2023-04-19T03:20:24;99997.63;;;15.90;53.50
50368;BME280;36281;34.132;-118.018;2023-04-19T03:22:54;100006.03;;;15.82;53.87
50368;BME280;36281;34.132;-118.018;2023-04-19T03:25:23;100014.78;;;15.77;53.81
50368;BME280;36281;34.132;-118.018;2023-04-19T03:27:52;100012.03;;;15.72;54.11
50368;BME280;36281;34.132;-118.018;2023-04-19T03:30:21;100017.59;;;15.71;54.67
50368;BME280;36281;34.132;-118.018;2023-04-19T03:32:50;100018.81;;;15.63;54.15
50368;BME280;36281;34.132;-118.018;2023-04-19T03:35:21;100030.50;;;15.62;55.08
50368;BME280;36281;34.132;-118.018;2023-04-19T03:37:53;100039.47;;;15.56;54.83
50368;BME280;36281;34.132;-118.018;2023-04-19T03:40:22;100043.19;;;15.55;55.53
50368;BME280;36281;34.132;-118.018;2023-04-19T03:42:51;100039.72;;;15.55;55.85
50368;BME280;36281;34.132;-118.018;2023-04-19T03:45:20;100052.41;;;15.47;55.79
50368;BME280;36281;34.132;-118.018;2023-04-19T03:47:50;100056.00;;;15.41;55.95
50368;BME280;36281;34.132;-118.018;2023-04-19T03:50:21;100053.03;;;15.38;56.49
50368;BME280;36281;34.132;-118.018;2023-04-19T03:52:50;100059.41;;;15.37;57.15
50368;BME280;36281;34.132;-118.018;2023-04-19T03:55:19;100062.56;;;15.34;57.66
50368;BME280;36281;34.132;-118.018;2023-04-19T03:57:48;100068.84;;;15.28;58.08
50368;BME280;36281;34.132;-118.018;2023-04-19T04:00:17;100078.38;;;15.23;58.49
50368;BME280;36281;34.132;-118.018;2023-04-19T04:02:47;100075.69;;;15.23;58.88
50368;BME280;36281;34.132;-118.018;2023-04-19T04:05:16;100086.63;;;15.22;59.43
50368;BME280;36281;34.132;-118.018;2023-04-19T04:07:47;100095.09;;;15.19;59.37
50368;BME280;36281;34.132;-118.018;2023-04-19T04:10:16;100097.41;;;15.15;59.75
50368;BME280;36281;34.132;-118.018;2023-04-19T04:12:45;100101.59;;;15.11;59.69
50368;BME280;36281;34.132;-118.018;2023-04-19T04:15:14;100095.56;;;15.04;59.74
50368;BME280;36281;34.132;-118.018;2023-04-19T04:17:43;100094.78;;;15.04;60.06
50368;BME280;36281;34.132;-118.018;2023-04-19T04:20:12;100092.34;;;15.02;60.94
50368;BME280;36281;34.132;-118.018;2023-04-19T04:22:42;100101.63;;;14.99;61.68
50368;BME280;36281;34.132;-118.018;2023-04-19T04:25:15;100113.34;;;14.98;61.40
50368;BME280;36281;34.132;-118.018;2023-04-19T04:27:44;100098.38;;;14.86;61.85
50368;BME280;36281;34.132;-118.018;2023-04-19T04:30:13;100120.88;;;14.90;62.24
50368;BME280;36281;34.132;-118.018;2023-04-19T04:32:43;100117.28;;;14.84;62.60
50368;BME280;36281;34.132;-118.018;2023-04-19T04:35:14;100119.41;;;14.82;63.17
50368;BME280;36281;34.132;-118.018;2023-04-19T04:37:43;100121.94;;;14.77;63.68
50368;BME280;36281;34.132;-118.018;2023-04-19T04:40:14;100123.66;;;14.71;63.93
50368;BME280;36281;34.132;-118.018;2023-04-19T04:42:43;100120.88;;;14.66;63.87
50368;BME280;36281;34.132;-118.018;2023-04-19T04:45:13;100122.28;;;14.57;64.47
50368;BME280;36281;34.132;-118.018;2023-04-19T04:47:45;100135.50;;;14.52;64.75
50368;BME280;36281;34.132;-118.018;2023-04-19T04:50:14;100139.28;;;14.44;65.50
50368;BME280;36281;34.132;-118.018;2023-04-19T04:52:44;100126.03;;;14.26;65.59
50368;BME280;36281;34.132;-118.018;2023-04-19T04:55:14;100133.81;;;14.28;66.16
50368;BME280;36281;34.132;-118.018;2023-04-19T04:57:44;100135.06;;;14.25;66.87
50368;BME280;36281;34.132;-118.018;2023-04-19T05:00:13;100129.63;;;14.20;67.59
50368;BME280;36281;34.132;-118.018;2023-04-19T05:02:43;100139.69;;;14.18;67.77
50368;BME280;36281;34.132;-118.018;2023-04-19T05:05:12;100131.13;;;14.16;67.58
50368;BME280;36281;34.132;-118.018;2023-04-19T05:07:41;100127.16;;;14.07;67.76
50368;BME280;36281;34.132;-118.018;2023-04-19T05:10:10;100131.66;;;14.06;67.58
50368;BME280;36281;34.132;-118.018;2023-04-19T05:12:41;100140.56;;;14.00;67.59
50368;BME280;36281;34.132;-118.018;2023-04-19T05:15:10;100135.34;;;13.93;67.87
50368;BME280;36281;34.132;-118.018;2023-04-19T05:17:42;100152.38;;;13.92;68.24
50368;BME280;36281;34.132;-118.018;2023-04-19T05:20:11;100152.38;;;13.92;68.78
50368;BME280;36281;34.132;-118.018;2023-04-19T05:22:41;100153.63;;;13.90;68.79
50368;BME280;36281;34.132;-118.018;2023-04-19T05:25:10;100162.16;;;13.80;69.08
50368;BME280;36281;34.132;-118.018;2023-04-19T05:27:41;100154.59;;;13.77;69.18
50368;BME280;36281;34.132;-118.018;2023-04-19T05:30:10;100160.41;;;13.74;69.45
50368;BME280;36281;34.132;-118.018;2023-04-19T05:32:39;100158.16;;;13.71;69.49
50368;BME280;36281;34.132;-118.018;2023-04-19T05:35:09;100160.69;;;13.66;69.81
50368;BME280;36281;34.132;-118.018;2023-04-19T05:37:38;100154.19;;;13.62;69.94
50368;BME280;36281;34.132;-118.018;2023-04-19T05:40:09;100148.72;;;13.57;69.94
50368;BME280;36281;34.132;-118.018;2023-04-19T05:42:40;100144.53;;;13.49;70.76
50368;BME280;36281;34.132;-118.018;2023-04-19T05:45:10;100156.91;;;13.43;70.60
50368;BME280;36281;34.132;-118.018;2023-04-19T05:47:39;100156.53;;;13.40;71.11
50368;BME280;36281;34.132;-118.018;2023-04-19T05:50:09;100153.47;;;13.36;71.04
50368;BME280;36281;34.132;-118.018;2023-04-19T05:52:38;100156.22;;;13.30;71.82
50368;BME280;36281;34.132;-118.018;2023-04-19T05:55:07;100152.00;;;13.22;72.07
50368;BME280;36281;34.132;-118.018;2023-04-19T05:57:37;100159.19;;;13.22;72.06
50368;BME280;36281;34.132;-118.018;2023-04-19T06:00:09;100158.03;;;13.11;72.65
50368;BME280;36281;34.132;-118.018;2023-04-19T06:02:38;100152.34;;;13.07;73.14
50368;BME280;36281;34.132;-118.018;2023-04-19T06:05:08;100146.88;;;13.02;73.22
50368;BME280;36281;34.132;-118.018;2023-04-19T06:07:38;100140.81;;;12.95;73.62
50368;BME280;36281;34.132;-118.018;2023-04-19T06:10:13;100150.50;;;12.89;73.65
50368;BME280;36281;34.132;-118.018;2023-04-19T06:12:42;100146.66;;;12.85;73.86
50368;BME280;36281;34.132;-118.018;2023-04-19T06:15:14;100155.19;;;12.87;73.93
50368;BME280;36281;34.132;-118.018;2023-04-19T06:17:43;100151.31;;;12.90;74.12
50368;BME280;36281;34.132;-118.018;2023-04-19T06:20:12;100107.47;;;12.56;74.08
50368;BME280;36281;34.132;-118.018;2023-04-19T06:22:43;100143.69;;;12.75;74.24
50368;BME280;36281;34.132;-118.018;2023-04-19T06:25:12;100146.19;;;12.70;74.51
50368;BME280;36281;34.132;-118.018;2023-04-19T06:27:42;100140.06;;;12.70;75.26
50368;BME280;36281;34.132;-118.018;2023-04-19T06:30:13;100141.66;;;12.71;75.08
50368;BME280;36281;34.132;-118.018;2023-04-19T06:32:42;100140.63;;;12.72;75.17
50368;BME280;36281;34.132;-118.018;2023-04-19T06:35:12;100147.41;;;12.67;75.11
50368;BME280;36281;34.132;-118.018;2023-04-19T06:37:41;100140.53;;;12.60;75.25
50368;BME280;36281;34.132;-118.018;2023-04-19T06:40:10;100142.16;;;12.61;75.56
50368;BME280;36281;34.132;-118.018;2023-04-19T06:42:39;100148.28;;;12.61;75.51
50368;BME280;36281;34.132;-118.018;2023-04-19T06:45:09;100123.69;;;12.48;75.71
50368;BME280;36281;34.132;-118.018;2023-04-19T06:47:40;100135.88;;;12.55;75.81
50368;BME280;36281;34.132;-118.018;2023-04-19T06:50:10;100128.13;;;12.54;75.73
50368;BME280;36281;34.132;-118.018;2023-04-19T06:52:39;100127.75;;;12.50;75.61
50368;BME280;36281;34.132;-118.018;2023-04-19T06:55:09;100137.25;;;12.39;76.26
50368;BME280;36281;34.132;-118.018;2023-04-19T06:57:38;100137.84;;;12.41;76.05
50368;BME280;36281;34.132;-118.018;2023-04-19T07:00:08;100143.16;;;12.41;76.63
50368;BME280;36281;34.132;-118.018;2023-04-19T07:02:39;100137.25;;;12.39;76.54
50368;BME280;36281;34.132;-118.018;2023-04-19T07:05:09;100139.28;;;12.37;76.62
50368;BME280;36281;34.132;-118.018;2023-04-19T07:07:38;100144.25;;;12.34;76.58
50368;BME280;36281;34.132;-118.018;2023-04-19T07:10:09;100132.44;;;12.23;76.39
50368;BME280;36281;34.132;-118.018;2023-04-19T07:12:38;100135.38;;;12.15;76.42
50368;BME280;36281;34.132;-118.018;2023-04-19T07:15:08;100142.31;;;12.16;77.08
50368;BME280;36281;34.132;-118.018;2023-04-19T07:17:39;100144.97;;;12.16;76.92
50368;BME280;36281;34.132;-118.018;2023-04-19T07:20:08;100140.91;;;12.13;77.05
50368;BME280;36281;34.132;-118.018;2023-04-19T07:22:37;100144.81;;;12.11;77.50
50368;BME280;36281;34.132;-118.018;2023-04-19T07:25:07;100145.63;;;12.11;77.08
50368;BME280;36281;34.132;-118.018;2023-04-19T07:27:36;100150.53;;;12.08;77.16
50368;BME280;36281;34.132;-118.018;2023-04-19T07:30:06;100141.16;;;12.05;77.45
50368;BME280;36281;34.132;-118.018;2023-04-19T07:32:36;100143.00;;;12.05;77.63
50368;BME280;36281;34.132;-118.018;2023-04-19T07:35:07;100142.41;;;12.03;77.81
50368;BME280;36281;34.132;-118.018;2023-04-19T07:37:36;100140.81;;;11.95;77.94
50368;BME280;36281;34.132;-118.018;2023-04-19T07:40:07;100147.19;;;11.87;78.49
50368;BME280;36281;34.132;-118.018;2023-04-19T07:42:36;100148.00;;;11.88;78.65
50368;BME280;36281;34.132;-118.018;2023-04-19T07:45:06;100146.38;;;11.87;78.60
50368;BME280;36281;34.132;-118.018;2023-04-19T07:47:36;100119.13;;;11.67;78.40
50368;BME280;36281;34.132;-118.018;2023-04-19T07:50:08;100154.97;;;11.82;78.03
50368;BME280;36281;34.132;-118.018;2023-04-19T07:52:38;100157.25;;;11.72;78.54
50368;BME280;36281;34.132;-118.018;2023-04-19T07:55:08;100146.44;;;11.67;78.58
50368;BME280;36281;34.132;-118.018;2023-04-19T07:57:37;100152.97;;;11.71;78.55
50368;BME280;36281;34.132;-118.018;2023-04-19T08:00:07;100142.19;;;11.66;78.27
50368;BME280;36281;34.132;-118.018;2023-04-19T08:02:37;100145.69;;;11.60;78.93
50368;BME280;36281;34.132;-118.018;2023-04-19T08:05:09;100149.78;;;11.56;79.29
50368;BME280;36281;34.132;-118.018;2023-04-19T08:07:38;100151.00;;;11.53;79.16
50368;BME280;36281;34.132;-118.018;2023-04-19T08:10:08;100146.94;;;11.51;79.20
50368;BME280;36281;34.132;-118.018;2023-04-19T08:12:38;100147.53;;;11.53;79.40
50368;BME280;36281;34.132;-118.018;2023-04-19T08:15:27;100147.53;;;11.53;79.34
50368;BME280;36281;34.132;-118.018;2023-04-19T08:18:16;100152.25;;;11.51;79.12
50368;BME280;36281;34.132;-118.018;2023-04-19T08:20:47;100146.34;;;11.49;79.02
50368;BME280;36281;34.132;-118.018;2023-04-19T08:23:16;100150.00;;;11.48;79.09
50368;BME280;36281;34.132;-118.018;2023-04-19T08:25:54;100153.91;;;11.45;79.11
50368;BME280;36281;34.132;-118.018;2023-04-19T08:28:23;100157.78;;;11.43;79.23
50368;BME280;36281;34.132;-118.018;2023-04-19T08:30:53;100152.69;;;11.41;79.39
50368;BME280;36281;34.132;-118.018;2023-04-19T08:33:22;100153.91;;;11.38;79.53
50368;BME280;36281;34.132;-118.018;2023-04-19T08:35:53;100158.63;;;11.36;79.66
50368;BME280;36281;34.132;-118.018;2023-04-19T08:38:22;100146.22;;;11.30;79.97
50368;BME280;36281;34.132;-118.018;2023-04-19T08:40:52;100153.13;;;11.31;79.79
50368;BME280;36281;34.132;-118.018;2023-04-19T08:43:24;100154.97;;;11.31;79.95
50368;BME280;36281;34.132;-118.018;2023-04-19T08:45:56;100151.91;;;11.27;79.69
50368;BME280;36281;34.132;-118.018;2023-04-19T08:48:26;100140.53;;;11.20;79.95
50368;BME280;36281;34.132;-118.018;2023-04-19T08:50:58;100150.91;;;11.22;79.60
50368;BME280;36281;34.132;-118.018;2023-04-19T08:53:33;100155.84;;;11.11;79.66
50368;BME280;36281;34.132;-118.018;2023-04-19T08:56:03;100149.94;;;11.09;79.84
50368;BME280;36281;34.132;-118.018;2023-04-19T08:58:44;100154.63;;;11.07;79.86
50368;BME280;36281;34.132;-118.018;2023-04-19T09:01:31;100147.91;;;10.98;80.65
50368;BME280;36281;34.132;-118.018;2023-04-19T09:04:03;100152.41;;;10.98;80.64
50368;BME280;36281;34.132;-118.018;2023-04-19T09:06:57;100149.34;;;11.01;80.55
50368;BME280;36281;34.132;-118.018;2023-04-19T09:09:27;100149.38;;;10.94;80.89
50368;BME280;36281;34.132;-118.018;2023-04-19T09:12:00;100147.94;;;10.92;80.90
50368;BME280;36281;34.132;-118.018;2023-04-19T09:14:29;100143.22;;;10.94;81.18
50368;BME280;36281;34.132;-118.018;2023-04-19T09:17:12;100151.81;;;10.96;80.97
50368;BME280;36281;34.132;-118.018;2023-04-19T09:19:47;100139.38;;;10.96;81.14
50368;BME280;36281;34.132;-118.018;2023-04-19T09:22:18;100139.59;;;10.95;81.23
50368;BME280;36281;34.132;-118.018;2023-04-19T09:24:47;100139.56;;;10.88;81.07
50368;BME280;36281;34.132;-118.018;2023-04-19T09:27:26;100146.09;;;10.92;81.14
50368;BME280;36281;34.132;-118.018;2023-04-19T09:29:57;100147.13;;;10.91;80.97
50368;BME280;36281;34.132;-118.018;2023-04-19T09:32:27;100145.50;;;10.90;81.07
50368;BME280;36281;34.132;-118.018;2023-04-19T09:34:57;100148.56;;;10.87;81.43
50368;BME280;36281;34.132;-118.018;2023-04-19T09:37:29;100133.69;;;10.73;81.04
50368;BME280;36281;34.132;-118.018;2023-04-19T09:40:22;100144.50;;;10.78;81.63
50368;BME280;36281;34.132;-118.018;2023-04-19T09:42:51;100140.00;;;10.78;81.64
50368;BME280;36281;34.132;-118.018;2023-04-19T09:45:23;100132.47;;;10.75;81.56
50368;BME280;36281;34.132;-118.018;2023-04-19T09:48:06;100131.06;;;10.66;81.73
50368;BME280;36281;34.132;-118.018;2023-04-19T09:50:49;100144.09;;;10.68;81.57
50368;BME280;36281;34.132;-118.018;2023-04-19T09:53:30;100141.25;;;10.69;81.28
50368;BME280;36281;34.132;-118.018;2023-04-19T09:56:04;100131.66;;;10.68;81.49
50368;BME280;36281;34.132;-118.018;2023-04-19T09:58:34;100134.75;;;10.65;81.38
50368;BME280;36281;34.132;-118.018;2023-04-19T10:01:21;100135.56;;;10.66;81.67
50368;BME280;36281;34.132;-118.018;2023-04-19T10:03:52;100126.78;;;10.58;81.33
50368;BME280;36281;34.132;-118.018;2023-04-19T10:06:23;100139.41;;;10.63;81.49
50368;BME280;36281;34.132;-118.018;2023-04-19T10:08:58;100128.63;;;10.58;81.42
50368;BME280;36281;34.132;-118.018;2023-04-19T10:11:31;100131.88;;;10.60;81.63
50368;BME280;36281;34.132;-118.018;2023-04-19T10:14:07;100132.06;;;10.58;81.60
50368;BME280;36281;34.132;-118.018;2023-04-19T10:16:37;100147.16;;;10.58;81.75
50368;BME280;36281;34.132;-118.018;2023-04-19T10:19:08;100134.13;;;10.56;81.77
50368;BME280;36281;34.132;-118.018;2023-04-19T10:21:40;100136.78;;;10.50;81.34
50368;BME280;36281;34.132;-118.018;2023-04-19T10:24:13;100137.19;;;10.47;81.13
50368;BME280;36281;34.132;-118.018;2023-04-19T10:27:07;100142.06;;;10.43;81.12
50368;BME280;36281;34.132;-118.018;2023-04-19T10:29:57;100138.41;;;10.44;81.07
50368;BME280;36281;34.132;-118.018;2023-04-19T10:32:27;100135.97;;;10.43;81.19
50368;BME280;36281;34.132;-118.018;2023-04-19T10:35:01;100132.69;;;10.34;81.17
50368;BME280;36281;34.132;-118.018;2023-04-19T10:37:33;100138.19;;;10.39;81.16
50368;BME280;36281;34.132;-118.018;2023-04-19T10:40:06;100133.94;;;10.31;81.04
50368;BME280;36281;34.132;-118.018;2023-04-19T10:45:38;100153.28;;;10.25;81.38
50368;BME280;36281;34.132;-118.018;2023-04-19T10:48:39;100149.75;;;10.18;81.64
50368;BME280;36281;34.132;-118.018;2023-04-19T10:51:12;100144.06;;;10.15;81.57
50368;BME280;36281;34.132;-118.018;2023-04-19T10:53:51;100151.00;;;10.16;81.60
50368;BME280;36281;34.132;-118.018;2023-04-19T10:59:39;100148.75;;;10.13;81.46
50368;BME280;36281;34.132;-118.018;2023-04-19T11:02:27;100150.97;;;10.09;81.77
50368;BME280;36281;34.132;-118.018;2023-04-19T11:05:01;100160.13;;;10.06;81.93
50368;BME280;36281;34.132;-118.018;2023-04-19T11:07:38;100162.34;;;10.03;81.91
50368;BME280;36281;34.132;-118.018;2023-04-19T11:10:09;100166.41;;;9.92;81.88
50368;BME280;36281;34.132;-118.018;2023-04-19T11:12:43;100167.44;;;9.91;81.85
50368;BME280;36281;34.132;-118.018;2023-04-19T11:15:13;100172.13;;;9.96;81.75
50368;BME280;36281;34.132;-118.018;2023-04-19T11:17:42;100162.56;;;9.95;81.59
50368;BME280;36281;34.132;-118.018;2023-04-19T11:20:11;100167.22;;;9.93;81.65
50368;BME280;36281;34.132;-118.018;2023-04-19T11:22:43;100171.69;;;9.92;81.43
50368;BME280;36281;34.132;-118.018;2023-04-19T11:25:13;100167.44;;;9.91;81.22
50368;BME280;36281;34.132;-118.018;2023-04-19T11:27:47;100158.25;;;9.87;81.08
50368;BME280;36281;34.132;-118.018;2023-04-19T11:30:17;100154.19;;;9.84;80.88
50368;BME280;36281;34.132;-118.018;2023-04-19T11:32:49;100167.59;;;9.83;81.24
50368;BME280;36281;34.132;-118.018;2023-04-19T11:35:20;100167.59;;;9.76;80.88
50368;BME280;36281;34.132;-118.018;2023-04-19T11:37:49;100168.63;;;9.75;81.22
50368;BME280;36281;34.132;-118.018;2023-04-19T11:40:21;100173.25;;;9.73;81.39
50368;BME280;36281;34.132;-118.018;2023-04-19T11:42:55;100179.38;;;9.74;81.54
50368;BME280;36281;34.132;-118.018;2023-04-19T11:45:25;100175.09;;;9.73;81.82
50368;BME280;36281;34.132;-118.018;2023-04-19T11:48:02;100182.59;;;9.69;81.82
50368;BME280;36281;34.132;-118.018;2023-04-19T11:50:35;100151.03;;;9.54;81.88
50368;BME280;36281;34.132;-118.018;2023-04-19T11:53:13;100177.09;;;9.64;81.62
50368;BME280;36281;34.132;-118.018;2023-04-19T11:55:44;100169.56;;;9.61;81.55
50368;BME280;36281;34.132;-118.018;2023-04-19T11:58:26;100169.16;;;9.57;81.68
50368;BME280;36281;34.132;-118.018;2023-04-19T12:01:03;100171.34;;;9.54;81.71
50368;BME280;36281;34.132;-118.018;2023-04-19T12:03:34;100177.66;;;9.53;81.67
50368;BME280;36281;34.132;-118.018;2023-04-19T12:06:04;100167.50;;;9.50;81.71
50368;BME280;36281;34.132;-118.018;2023-04-19T12:08:38;100169.50;;;9.48;82.15
50368;BME280;36281;34.132;-118.018;2023-04-19T12:11:10;100168.91;;;9.46;82.24
50368;BME280;36281;34.132;-118.018;2023-04-19T12:13:40;100169.88;;;9.38;82.58
50368;BME280;36281;34.132;-118.018;2023-04-19T12:16:13;100170.31;;;9.42;82.62
50368;BME280;36281;34.132;-118.018;2023-04-19T12:18:46;100177.19;;;9.36;82.84
50368;BME280;36281;34.132;-118.018;2023-04-19T12:21:29;100174.31;;;9.31;83.14
50368;BME280;36281;34.132;-118.018;2023-04-19T12:24:00;100171.84;;;9.29;83.08
50368;BME280;36281;34.132;-118.018;2023-04-19T12:26:29;100167.41;;;9.30;82.85
50368;BME280;36281;34.132;-118.018;2023-04-19T12:29:01;100169.41;;;9.28;82.79
50368;BME280;36281;34.132;-118.018;2023-04-19T12:31:31;100162.13;;;9.30;82.73
50368;BME280;36281;34.132;-118.018;2023-04-19T12:34:01;100161.06;;;9.24;82.79
50368;BME280;36281;34.132;-118.018;2023-04-19T12:36:30;100156.63;;;9.25;83.08
50368;BME280;36281;34.132;-118.018;2023-04-19T12:38:59;100160.00;;;9.19;82.48
50368;BME280;36281;34.132;-118.018;2023-04-19T12:41:28;100155.31;;;9.14;82.71
50368;BME280;36281;34.132;-118.018;2023-04-19T12:43:57;100161.25;;;9.16;82.71
50368;BME280;36281;34.132;-118.018;2023-04-19T12:46:27;100158.75;;;9.15;83.09
50368;BME280;36281;34.132;-118.018;2023-04-19T12:48:57;100163.25;;;9.14;82.95
50368;BME280;36281;34.132;-118.018;2023-04-19T12:51:26;100169.53;;;9.13;82.91